Time,TemperatureF,DewpointF,PressureIn,WindDirection,WindDirectionDegrees,WindSpeedMPH,WindSpeedGustMPH,Humidity,HourlyPrecipIn,Conditions,Clouds,dailyrainin,SoftwareType,DateUTC
2013-01-07 00:00:00,32.7,27.8,30.18,NE,45,0.0,0.0,82,0.00,FEW,,0.00,WeatherDisplay:10.37,2013-01-07 05:00:00,
2013-01-07 00:01:00,32.7,27.8,30.18,NE,45,0.0,0.0,82,0.00,FEW,,0.00,WeatherDisplay:10.37,2013-01-07 05:01:00,
2013-01-07 00:02:00,32.5,27.7,30.18,ENE,68,2.7,2.7,82,0.00,CLR,,0.00,WeatherDisplay:10.37,2013-01-07 05:02:00,
2013-01-07 00:07:00,32.2,27.3,30.18,ENE,68,0.0,0.0,82,0.00,CLR,,0.00,WeatherDisplay:10.37,2013-01-07 05:07:00,
2013-01-07 00:12:00,32.2,27.3,30.19,NNW,338,0.0,0.0,82,0.00,CLR,,0.00,WeatherDisplay:10.37,2013-01-07 05:12:00,
2013-01-07 00:17:00,32.2,27.3,30.18,North,0,3.5,3.5,82,0.00,CLR,,0.00,WeatherDisplay:10.37,2013-01-07 05:17:00,
2013-01-07 00:22:00,32.2,27.3,30.19,NE,45,0.0,0.0,82,0.00,CLR,,0.00,WeatherDisplay:10.37,2013-01-07 05:22:00,
2013-01-07 00:27:00,31.8,27.0,30.19,NE,45,0.0,0.0,82,0.00,CLR,,0.00,WeatherDisplay:10.37,2013-01-07 05:27:00,
2013-01-07 00:32:00,31.8,27.0,30.19,NE,45,0.0,0.0,82,0.00,CLR,,0.00,WeatherDisplay:10.37,2013-01-07 05:32:00,
2013-01-07 00:37:00,31.8,27.0,30.19,NE,45,0.0,0.0,82,0.00,CLR,,0.00,WeatherDisplay:10.37,2013-01-07 05:37:00,
2013-01-07 00:42:00,31.8,27.0,30.19,NE,45,0.0,0.0,82,0.00,CLR,,0.00,WeatherDisplay:10.37,2013-01-07 05:42:00,
2013-01-07 00:47:00,31.6,27.1,30.18,NE,45,0.0,0.0,83,0.00,CLR,,0.00,WeatherDisplay:10.37,2013-01-07 05:47:00,
2013-01-07 00:52:00,31.6,27.1,30.18,NE,45,0.0,0.0,83,0.00,CLR,,0.00,WeatherDisplay:10.37,2013-01-07 05:52:00,
2013-01-07 00:57:00,31.6,27.1,30.18,NNE,22,0.0,0.0,83,0.00,CLR,,0.00,WeatherDisplay:10.37,2013-01-07 05:57:00,
2013-01-07 01:02:00,31.8,27.2,30.18,NNE,22,0.0,0.0,83,0.00,CLR,,0.00,WeatherDisplay:10.37,2013-01-07 06:02:00,
2013-01-07 01:08:00,31.8,27.2,30.17,NNE,22,0.0,0.0,83,0.00,CLR,,0.00,WeatherDisplay:10.37,2013-01-07 06:08:00,
2013-01-07 01:13:00,31.8,27.2,30.18,NNE,22,0.0,0.0,83,0.00,CLR,,0.00,WeatherDisplay:10.37,2013-01-07 06:13:00,
2013-01-07 01:18:00,31.8,27.2,30.19,NNE,22,0.0,0.0,83,0.00,CLR,,0.00,WeatherDisplay:10.37,2013-01-07 06:18:00,
2013-01-07 01:23:00,31.8,27.2,30.18,NNE,22,0.0,0.0,83,0.00,CLR,,0.00,WeatherDisplay:10.37,2013-01-07 06:23:00,
2013-01-07 01:28:00,31.6,27.1,30.19,NNE,22,0.0,0.0,83,0.00,CLR,,0.00,WeatherDisplay:10.37,2013-01-07 06:28:00,
2013-01-07 01:33:00,31.6,27.1,30.19,NNE,22,0.0,0.0,83,0.00,CLR,,0.00,WeatherDisplay:10.37,2013-01-07 06:33:00,
2013-01-07 01:38:00,31.3,26.7,30.19,NNE,22,0.0,0.0,83,0.00,CLR,,0.00,WeatherDisplay:10.37,2013-01-07 06:38:00,
2013-01-07 01:43:00,31.3,26.7,30.19,North,0,0.0,0.0,83,0.00,CLR,,0.00,WeatherDisplay:10.37,2013-01-07 06:43:00,
2013-01-07 01:48:00,31.3,26.7,30.19,NNW,338,0.0,0.0,83,0.00,CLR,,0.00,WeatherDisplay:10.37,2013-01-07 06:48:00,
2013-01-07 01:53:00,31.1,26.5,30.20,NNW,338,0.0,0.0,83,0.00,CLR,,0.00,WeatherDisplay:10.37,2013-01-07 06:53:00,
2013-01-07 01:58:00,30.9,26.4,30.20,North,0,0.0,0.0,83,0.00,CLR,,0.00,WeatherDisplay:10.37,2013-01-07 06:58:00,
2013-01-07 02:03:00,30.7,26.2,30.21,NNE,22,0.0,0.0,83,0.00,CLR,,0.00,WeatherDisplay:10.37,2013-01-07 07:03:00,
2013-01-07 02:08:00,30.7,26.2,30.21,NNW,338,2.3,0.0,83,0.00,CLR,,0.00,WeatherDisplay:10.37,2013-01-07 07:08:00,
2013-01-07 02:13:00,31.3,27.0,30.21,NE,45,5.8,5.8,84,0.00,CLR,,0.00,WeatherDisplay:10.37,2013-01-07 07:13:00,
2013-01-07 02:18:00,31.8,27.5,30.21,NNE,22,8.1,8.1,84,0.00,CLR,,0.00,WeatherDisplay:10.37,2013-01-07 07:18:00,
2013-01-07 02:24:00,32.2,28.2,30.21,NE,45,6.9,6.9,85,0.00,CLR,,0.00,WeatherDisplay:10.37,2013-01-07 07:24:00,
2013-01-07 02:29:00,32.7,28.7,30.22,North,0,5.8,5.8,85,0.00,CLR,,0.00,WeatherDisplay:10.37,2013-01-07 07:29:00,
2013-01-07 02:34:00,33.3,29.2,30.22,NE,45,5.8,5.8,85,0.00,CLR,,0.00,WeatherDisplay:10.37,2013-01-07 07:34:00,
2013-01-07 02:39:00,33.6,29.6,30.22,NNE,22,5.8,5.8,85,0.00,CLR,,0.00,WeatherDisplay:10.37,2013-01-07 07:39:00,
2013-01-07 02:44:00,34.0,29.9,30.22,NNE,22,10.4,10.4,85,0.00,CLR,,0.00,WeatherDisplay:10.37,2013-01-07 07:44:00,
2013-01-07 02:49:00,34.2,30.1,30.22,NNE,22,6.9,6.9,85,0.00,CLR,,0.00,WeatherDisplay:10.37,2013-01-07 07:49:00,
2013-01-07 02:54:00,34.3,30.3,30.22,NNW,338,10.5,10.5,85,0.00,CLR,,0.00,WeatherDisplay:10.37,2013-01-07 07:54:00,
2013-01-07 02:59:00,34.5,30.5,30.22,North,0,15.0,15.0,85,0.00,CLR,,0.00,WeatherDisplay:10.37,2013-01-07 07:59:00,
2013-01-07 03:04:00,34.5,30.2,30.22,North,0,6.9,6.9,84,0.00,CLR,,0.00,WeatherDisplay:10.37,2013-01-07 08:04:00,
2013-01-07 03:09:00,34.7,30.4,30.22,NNW,338,10.4,10.4,84,0.00,CLR,,0.00,WeatherDisplay:10.37,2013-01-07 08:09:00,
2013-01-07 03:14:00,34.9,30.5,30.23,North,0,8.1,8.1,84,0.00,CLR,,0.00,WeatherDisplay:10.37,2013-01-07 08:14:00,
2013-01-07 03:19:00,34.7,30.4,30.22,North,0,8.1,8.1,84,0.00,CLR,,0.00,WeatherDisplay:10.37,2013-01-07 08:19:00,
2013-01-07 03:24:00,34.9,30.5,30.22,North,0,9.2,9.2,84,0.00,CLR,,0.00,WeatherDisplay:10.37,2013-01-07 08:24:00,
2013-01-07 03:29:00,34.9,30.5,30.23,NNE,22,10.4,10.4,84,0.00,CLR,,0.00,WeatherDisplay:10.37,2013-01-07 08:29:00,
2013-01-07 03:34:00,34.7,30.4,30.23,NNW,338,7.2,7.2,84,0.00,CLR,,0.00,WeatherDisplay:10.37,2013-01-07 08:34:00,
2013-01-07 03:40:00,34.7,30.1,30.22,WNW,292,3.5,3.5,83,0.00,CLR,,0.00,WeatherDisplay:10.37,2013-01-07 08:40:00,
2013-01-07 03:45:00,34.7,30.1,30.22,NNW,342,8.0,12.0,83,0.00,CLR,,0.00,WeatherDisplay:10.37,2013-01-07 08:45:00,
2013-01-07 03:50:00,34.7,30.1,30.23,NNW,338,0.0,0.0,83,0.00,CLR,,0.00,WeatherDisplay:10.37,2013-01-07 08:50:00,
2013-01-07 03:55:00,34.7,30.1,30.23,WSW,248,6.9,6.9,83,0.00,CLR,,0.00,WeatherDisplay:10.37,2013-01-07 08:55:00,
2013-01-07 04:00:00,34.5,29.9,30.23,North,0,2.3,2.3,83,0.00,CLR,,0.00,WeatherDisplay:10.37,2013-01-07 09:00:00,
2013-01-07 04:05:00,34.5,29.9,30.24,NNW,338,5.4,5.4,83,0.00,CLR,,0.00,WeatherDisplay:10.37,2013-01-07 09:05:00,
2013-01-07 04:10:00,34.3,29.7,30.24,WNW,292,6.9,6.9,83,0.00,CLR,,0.00,WeatherDisplay:10.37,2013-01-07 09:10:00,
2013-01-07 04:15:00,34.2,29.5,30.24,NW,315,3.5,3.5,83,0.00,CLR,,0.00,WeatherDisplay:10.37,2013-01-07 09:15:00,
2013-01-07 04:20:00,34.0,29.1,30.24,NE,45,4.6,4.6,82,0.00,CLR,,0.00,WeatherDisplay:10.37,2013-01-07 09:20:00,
2013-01-07 04:25:00,34.0,29.1,30.24,North,0,5.1,5.1,82,0.00,CLR,,0.00,WeatherDisplay:10.37,2013-01-07 09:25:00,
2013-01-07 04:30:00,33.8,28.9,30.24,NNE,22,1.1,1.1,82,0.00,CLR,,0.00,WeatherDisplay:10.37,2013-01-07 09:30:00,
2013-01-07 04:35:00,34.0,29.1,30.25,NNE,22,3.5,3.5,82,0.00,CLR,,0.00,WeatherDisplay:10.37,2013-01-07 09:35:00,
2013-01-07 04:40:00,33.8,28.9,30.25,NE,45,0.0,0.0,82,0.00,CLR,,0.00,WeatherDisplay:10.37,2013-01-07 09:40:00,
2013-01-07 04:45:00,33.8,28.9,30.25,NE,45,0.0,0.0,82,0.00,CLR,,0.00,WeatherDisplay:10.37,2013-01-07 09:45:00,
2013-01-07 04:50:00,33.8,28.9,30.24,NNW,338,0.0,0.0,82,0.00,CLR,,0.00,WeatherDisplay:10.37,2013-01-07 09:50:00,
2013-01-07 04:56:00,33.6,28.7,30.24,North,0,2.3,0.0,82,0.00,CLR,,0.00,WeatherDisplay:10.37,2013-01-07 09:56:00,
2013-01-07 05:01:00,33.4,28.5,30.25,North,0,0.0,0.0,82,0.00,CLR,,0.00,WeatherDisplay:10.37,2013-01-07 10:01:00,
2013-01-07 05:06:00,32.9,28.0,30.24,North,0,0.0,0.0,82,0.00,CLR,,0.00,WeatherDisplay:10.37,2013-01-07 10:06:00,
2013-01-07 05:11:00,32.7,27.8,30.25,North,0,0.0,0.0,82,0.00,CLR,,0.00,WeatherDisplay:10.37,2013-01-07 10:11:00,
2013-01-07 05:16:00,32.5,27.7,30.25,North,0,0.0,0.0,82,0.00,CLR,,0.00,WeatherDisplay:10.37,2013-01-07 10:16:00,
2013-01-07 05:21:00,32.2,27.3,30.25,WNW,292,0.0,0.0,82,0.00,CLR,,0.00,WeatherDisplay:10.37,2013-01-07 10:21:00,
2013-01-07 05:26:00,31.8,27.2,30.25,WNW,292,0.0,0.0,83,0.00,CLR,,0.00,WeatherDisplay:10.37,2013-01-07 10:26:00,
2013-01-07 05:31:00,31.8,27.2,30.25,West,270,0.0,0.0,83,0.00,CLR,,0.00,WeatherDisplay:10.37,2013-01-07 10:31:00,
2013-01-07 05:36:00,31.5,26.9,30.26,West,270,0.0,0.0,83,0.00,CLR,,0.00,WeatherDisplay:10.37,2013-01-07 10:36:00,
2013-01-07 05:41:00,31.3,26.7,30.25,West,270,0.0,0.0,83,0.00,CLR,,0.00,WeatherDisplay:10.37,2013-01-07 10:41:00,
2013-01-07 05:46:00,30.9,26.4,30.26,West,270,0.0,0.0,83,0.00,CLR,,0.00,WeatherDisplay:10.37,2013-01-07 10:46:00,
2013-01-07 05:51:00,30.7,26.2,30.26,West,270,0.0,0.0,83,0.00,CLR,,0.00,WeatherDisplay:10.37,2013-01-07 10:51:00,
2013-01-07 05:56:00,30.7,26.2,30.26,NNW,338,0.0,0.0,83,0.00,CLR,,0.00,WeatherDisplay:10.37,2013-01-07 10:56:00,
2013-01-07 06:01:00,30.6,26.0,30.26,NNW,338,0.0,0.0,83,0.00,CLR,,0.00,WeatherDisplay:10.37,2013-01-07 11:01:00,
2013-01-07 06:06:00,30.4,25.8,30.26,NNW,338,0.0,0.0,83,0.00,CLR,,0.00,WeatherDisplay:10.37,2013-01-07 11:06:00,
2013-01-07 06:12:00,30.4,25.8,30.27,NW,315,0.0,0.0,83,0.00,CLR,,0.00,WeatherDisplay:10.37,2013-01-07 11:12:00,
2013-01-07 06:17:00,30.2,25.7,30.27,NW,315,0.0,0.0,83,0.00,CLR,,0.00,WeatherDisplay:10.37,2013-01-07 11:17:00,
2013-01-07 06:22:00,30.0,25.5,30.27,NW,315,0.0,0.0,83,0.00,CLR,,0.00,WeatherDisplay:10.37,2013-01-07 11:22:00,
2013-01-07 06:27:00,29.8,25.3,30.27,NW,315,0.0,0.0,83,0.00,CLR,,0.00,WeatherDisplay:10.37,2013-01-07 11:27:00,
2013-01-07 06:32:00,29.7,25.1,30.27,NW,315,0.0,0.0,83,0.00,CLR,,0.00,WeatherDisplay:10.37,2013-01-07 11:32:00,
2013-01-07 06:37:00,29.5,25.0,30.27,North,0,0.0,0.0,83,0.00,CLR,,0.00,WeatherDisplay:10.37,2013-01-07 11:37:00,
2013-01-07 06:42:00,29.5,25.0,30.27,SE,135,2.3,0.0,83,0.00,CLR,,0.00,WeatherDisplay:10.37,2013-01-07 11:42:00,
2013-01-07 06:47:00,29.3,25.1,30.27,SE,135,0.0,0.0,84,0.00,CLR,,0.00,WeatherDisplay:10.37,2013-01-07 11:47:00,
2013-01-07 06:52:00,29.3,25.1,30.28,North,0,3.5,3.5,84,0.00,CLR,,0.00,WeatherDisplay:10.37,2013-01-07 11:52:00,
2013-01-07 06:57:00,29.3,25.1,30.29,North,0,0.0,0.0,84,0.00,CLR,,0.00,WeatherDisplay:10.37,2013-01-07 11:57:00,
2013-01-07 07:02:00,29.1,24.9,30.29,North,0,0.0,0.0,84,0.00,CLR,,0.00,WeatherDisplay:10.37,2013-01-07 12:02:00,
2013-01-07 07:07:00,29.1,24.9,30.29,North,0,0.0,0.0,84,0.00,CLR,,0.00,WeatherDisplay:10.37,2013-01-07 12:07:00,
2013-01-07 07:12:00,28.9,24.7,30.29,North,0,0.0,0.0,84,0.00,CLR,,0.00,WeatherDisplay:10.37,2013-01-07 12:12:00,
2013-01-07 07:17:00,28.9,24.7,30.29,North,0,0.0,0.0,84,0.00,CLR,,0.00,WeatherDisplay:10.37,2013-01-07 12:17:00,
2013-01-07 07:22:00,28.9,24.7,30.30,North,0,0.0,0.0,84,0.00,CLR,,0.00,WeatherDisplay:10.37,2013-01-07 12:22:00,
2013-01-07 07:28:00,28.9,24.7,30.29,North,0,0.0,0.0,84,0.00,CLR,,0.00,WeatherDisplay:10.37,2013-01-07 12:28:00,
2013-01-07 07:33:00,28.9,24.7,30.29,North,0,0.0,0.0,84,0.00,CLR,,0.00,WeatherDisplay:10.37,2013-01-07 12:33:00,
2013-01-07 07:38:00,28.9,25.0,30.29,North,0,0.0,0.0,85,0.00,CLR,,0.00,WeatherDisplay:10.37,2013-01-07 12:38:00,
2013-01-07 07:43:00,28.9,25.0,30.29,North,0,0.0,0.0,85,0.00,CLR,,0.00,WeatherDisplay:10.37,2013-01-07 12:43:00,
2013-01-07 07:48:00,28.9,25.0,30.29,North,0,0.0,0.0,85,0.00,CLR,,0.00,WeatherDisplay:10.37,2013-01-07 12:48:00,
2013-01-07 07:53:00,28.8,24.8,30.30,North,0,0.0,0.0,85,0.00,CLR,,0.00,WeatherDisplay:10.37,2013-01-07 12:53:00,
2013-01-07 07:58:00,28.6,24.4,30.30,North,0,0.0,0.0,84,0.00,CLR,,0.00,WeatherDisplay:10.37,2013-01-07 12:58:00,
2013-01-07 08:03:00,28.6,24.4,30.30,North,0,0.0,0.0,84,0.00,CLR,,0.00,WeatherDisplay:10.37,2013-01-07 13:03:00,
2013-01-07 08:08:00,28.2,24.0,30.31,North,0,0.0,0.0,84,0.00,CLR,,0.00,WeatherDisplay:10.37,2013-01-07 13:08:00,
2013-01-07 08:13:00,28.2,24.3,30.31,North,0,0.0,0.0,85,0.00,CLR,,0.00,WeatherDisplay:10.37,2013-01-07 13:13:00,
2013-01-07 08:18:00,28.2,24.3,30.31,North,0,0.0,0.0,85,0.00,CLR,,0.00,WeatherDisplay:10.37,2013-01-07 13:18:00,
2013-01-07 08:23:00,28.2,24.3,30.31,North,0,0.0,0.0,85,0.00,CLR,,0.00,WeatherDisplay:10.37,2013-01-07 13:23:00,
2013-01-07 08:28:00,28.6,24.6,30.32,North,0,0.0,0.0,85,0.00,CLR,,0.00,WeatherDisplay:10.37,2013-01-07 13:28:00,
2013-01-07 08:33:00,28.6,24.6,30.32,North,0,0.0,0.0,85,0.00,CLR,,0.00,WeatherDisplay:10.37,2013-01-07 13:33:00,
2013-01-07 08:38:00,28.9,25.0,30.32,North,0,0.0,0.0,85,0.00,CLR,,0.00,WeatherDisplay:10.37,2013-01-07 13:38:00,
2013-01-07 08:44:00,29.1,25.2,30.32,North,0,0.0,0.0,85,0.00,CLR,,0.00,WeatherDisplay:10.37,2013-01-07 13:44:00,
2013-01-07 08:49:00,29.3,25.4,30.32,North,0,0.0,0.0,85,0.00,CLR,,0.00,WeatherDisplay:10.37,2013-01-07 13:49:00,
2013-01-07 08:54:00,29.8,26.2,30.32,NW,315,0.0,0.0,86,0.00,CLR,,0.00,WeatherDisplay:10.37,2013-01-07 13:54:00,
2013-01-07 08:59:00,30.2,26.5,30.32,NW,315,0.0,0.0,86,0.00,CLR,,0.00,WeatherDisplay:10.37,2013-01-07 13:59:00,
2013-01-07 09:04:00,30.6,26.9,30.32,NW,315,0.0,0.0,86,0.00,CLR,,0.00,WeatherDisplay:10.37,2013-01-07 14:04:00,
2013-01-07 09:09:00,31.1,27.4,30.33,NW,315,0.0,0.0,86,0.00,CLR,,0.00,WeatherDisplay:10.37,2013-01-07 14:09:00,
2013-01-07 09:14:00,31.8,28.4,30.34,NW,315,0.0,0.0,87,0.00,CLR,,0.00,WeatherDisplay:10.37,2013-01-07 14:14:00,
2013-01-07 09:19:00,32.2,28.5,30.34,NW,315,0.0,0.0,86,0.00,CLR,,0.00,WeatherDisplay:10.37,2013-01-07 14:19:00,
2013-01-07 09:24:00,32.9,29.5,30.34,NW,315,0.0,0.0,87,0.00,CLR,,0.00,WeatherDisplay:10.37,2013-01-07 14:24:00,
2013-01-07 09:29:00,33.6,29.9,30.34,NW,315,0.0,0.0,86,0.00,CLR,,0.00,WeatherDisplay:10.37,2013-01-07 14:29:00,
2013-01-07 09:34:00,34.3,30.6,30.34,West,270,0.0,0.0,86,0.00,CLR,,0.00,WeatherDisplay:10.37,2013-01-07 14:34:00,
2013-01-07 09:39:00,35.2,31.2,30.35,West,270,0.0,0.0,85,0.00,CLR,,0.00,WeatherDisplay:10.37,2013-01-07 14:39:00,
2013-01-07 09:44:00,35.8,31.4,30.35,West,270,0.0,0.0,84,0.00,CLR,,0.00,WeatherDisplay:10.37,2013-01-07 14:44:00,
2013-01-07 09:49:00,36.5,32.1,30.35,West,270,0.0,0.0,84,0.00,CLR,,0.00,WeatherDisplay:10.37,2013-01-07 14:49:00,
2013-01-07 09:54:00,37.0,32.4,30.35,West,270,0.0,0.0,83,0.00,CLR,,0.00,WeatherDisplay:10.37,2013-01-07 14:54:00,
2013-01-07 10:00:00,37.8,32.8,30.35,West,270,0.0,0.0,82,0.00,CLR,,0.00,WeatherDisplay:10.37,2013-01-07 15:00:00,
2013-01-07 10:05:00,38.1,32.8,30.35,WSW,248,0.0,0.0,81,0.00,CLR,,0.00,WeatherDisplay:10.37,2013-01-07 15:05:00,
2013-01-07 10:10:00,38.8,33.2,30.35,WSW,248,0.0,0.0,80,0.00,CLR,,0.00,WeatherDisplay:10.37,2013-01-07 15:10:00,
2013-01-07 10:15:00,39.4,33.4,30.35,ENE,68,0.0,0.0,79,0.00,CLR,,0.00,WeatherDisplay:10.37,2013-01-07 15:15:00,
2013-01-07 10:20:00,39.7,33.8,30.35,SSW,202,0.0,0.0,79,0.00,CLR,,0.00,WeatherDisplay:10.37,2013-01-07 15:20:00,
2013-01-07 10:25:00,40.3,34.0,30.35,WSW,248,0.0,0.0,78,0.00,CLR,,0.00,WeatherDisplay:10.37,2013-01-07 15:25:00,
2013-01-07 10:30:00,40.6,34.3,30.35,SW,225,0.0,0.0,78,0.00,CLR,,0.00,WeatherDisplay:10.37,2013-01-07 15:30:00,
2013-01-07 10:35:00,41.2,34.5,30.36,WSW,248,0.0,0.0,77,0.00,CLR,,0.00,WeatherDisplay:10.37,2013-01-07 15:35:00,
2013-01-07 10:40:00,41.5,34.5,30.36,WNW,292,0.0,0.0,76,0.00,CLR,,0.00,WeatherDisplay:10.37,2013-01-07 15:40:00,
2013-01-07 10:45:00,41.9,34.6,30.36,NE,45,0.0,0.0,75,0.00,CLR,,0.00,WeatherDisplay:10.37,2013-01-07 15:45:00,
2013-01-07 10:50:00,42.4,35.1,30.36,North,0,0.0,0.0,75,0.00,CLR,,0.00,WeatherDisplay:10.37,2013-01-07 15:50:00,
2013-01-07 10:55:00,42.6,34.9,30.36,North,0,0.0,0.0,74,0.00,CLR,,0.00,WeatherDisplay:10.37,2013-01-07 15:55:00,
2013-01-07 11:00:00,43.0,35.3,30.36,NE,45,0.0,0.0,74,0.00,CLR,,0.00,WeatherDisplay:10.37,2013-01-07 16:00:00,
2013-01-07 11:05:00,43.3,35.3,30.36,NNE,22,0.0,0.0,73,0.00,CLR,,0.00,WeatherDisplay:10.37,2013-01-07 16:05:00,
2013-01-07 11:10:00,43.5,35.4,30.35,North,0,3.5,3.5,73,0.00,CLR,,0.00,WeatherDisplay:10.37,2013-01-07 16:10:00,
2013-01-07 11:16:00,43.9,35.1,30.35,ENE,68,4.6,4.6,71,0.00,CLR,,0.00,WeatherDisplay:10.37,2013-01-07 16:16:00,
2013-01-07 11:21:00,44.2,35.4,30.35,ENE,68,3.5,3.5,71,0.00,CLR,,0.00,WeatherDisplay:10.37,2013-01-07 16:21:00,
2013-01-07 11:26:00,44.2,35.1,30.35,NE,45,0.0,0.0,70,0.00,CLR,,0.00,WeatherDisplay:10.37,2013-01-07 16:26:00,
2013-01-07 11:31:00,44.4,35.2,30.35,ENE,68,0.0,0.0,70,0.00,CLR,,0.00,WeatherDisplay:10.37,2013-01-07 16:31:00,
2013-01-07 11:36:00,44.8,35.2,30.34,ESE,112,0.0,0.0,69,0.00,CLR,,0.00,WeatherDisplay:10.37,2013-01-07 16:36:00,
2013-01-07 11:41:00,45.1,35.6,30.34,East,90,0.0,0.0,69,0.00,CLR,,0.00,WeatherDisplay:10.37,2013-01-07 16:41:00,
2013-01-07 11:46:00,45.5,35.5,30.34,NE,45,4.6,4.6,68,0.00,CLR,,0.00,WeatherDisplay:10.37,2013-01-07 16:46:00,
2013-01-07 11:51:00,45.7,35.7,30.34,ENE,68,4.6,4.6,68,0.00,CLR,,0.00,WeatherDisplay:10.37,2013-01-07 16:51:00,
2013-01-07 11:56:00,46.0,36.1,30.33,ENE,68,3.8,3.8,68,0.00,CLR,,0.00,WeatherDisplay:10.37,2013-01-07 16:56:00,
2013-01-07 12:01:00,46.2,36.2,30.33,NNE,22,3.5,3.5,68,0.00,CLR,,0.00,WeatherDisplay:10.37,2013-01-07 17:01:00,
2013-01-07 12:06:00,46.4,36.4,30.33,NE,45,4.6,4.6,68,0.00,CLR,,0.00,WeatherDisplay:10.37,2013-01-07 17:06:00,
2013-01-07 12:11:00,46.8,36.4,30.33,NE,45,4.6,4.6,67,0.00,CLR,,0.00,WeatherDisplay:10.37,2013-01-07 17:11:00,
2013-01-07 12:16:00,46.9,36.2,30.32,ENE,68,3.5,3.5,66,0.00,CLR,,0.00,WeatherDisplay:10.37,2013-01-07 17:16:00,
2013-01-07 12:21:00,47.1,36.0,30.32,NE,45,3.5,3.5,65,0.00,CLR,,0.00,WeatherDisplay:10.37,2013-01-07 17:21:00,
2013-01-07 12:26:00,47.3,35.7,30.32,NE,45,8.1,8.1,64,0.00,CLR,,0.00,WeatherDisplay:10.37,2013-01-07 17:26:00,
2013-01-07 12:32:00,47.7,35.7,30.32,NE,45,4.6,4.6,63,0.00,CLR,,0.00,WeatherDisplay:10.37,2013-01-07 17:32:00,
2013-01-07 12:37:00,48.0,36.0,30.32,North,0,4.6,4.6,63,0.00,CLR,,0.00,WeatherDisplay:10.37,2013-01-07 17:37:00,
2013-01-07 12:42:00,48.4,36.0,30.32,NE,45,4.6,4.6,62,0.00,CLR,,0.00,WeatherDisplay:10.37,2013-01-07 17:42:00,
2013-01-07 12:47:00,48.6,35.7,30.32,SE,135,1.8,1.8,61,0.00,CLR,,0.00,WeatherDisplay:10.37,2013-01-07 17:47:00,
2013-01-07 12:52:00,48.7,35.9,30.32,NE,45,3.6,3.6,61,0.00,CLR,,0.00,WeatherDisplay:10.37,2013-01-07 17:52:00,
2013-01-07 12:57:00,48.9,36.1,30.31,NE,45,5.8,5.8,61,0.00,CLR,,0.00,WeatherDisplay:10.37,2013-01-07 17:57:00,
2013-01-07 13:02:00,49.1,35.8,30.31,North,0,3.5,3.5,60,0.00,CLR,,0.00,WeatherDisplay:10.37,2013-01-07 18:02:00,
2013-01-07 13:07:00,49.3,36.0,30.30,NNE,22,3.5,3.5,60,0.00,CLR,,0.00,WeatherDisplay:10.37,2013-01-07 18:07:00,
2013-01-07 13:12:00,49.6,35.9,30.30,ENE,68,4.6,4.6,59,0.00,CLR,,0.00,WeatherDisplay:10.37,2013-01-07 18:12:00,
2013-01-07 13:17:00,49.8,36.1,30.29,ENE,68,6.3,6.3,59,0.00,CLR,,0.00,WeatherDisplay:10.37,2013-01-07 18:17:00,
2013-01-07 13:22:00,50.2,36.4,30.29,NE,45,3.5,3.5,59,0.00,CLR,,0.00,WeatherDisplay:10.37,2013-01-07 18:22:00,
2013-01-07 13:27:00,50.2,36.0,30.29,East,90,2.3,2.3,58,0.00,CLR,,0.00,WeatherDisplay:10.37,2013-01-07 18:27:00,
2013-01-07 13:32:00,50.4,36.6,30.29,NNE,22,2.7,0.0,59,0.00,CLR,,0.00,WeatherDisplay:10.37,2013-01-07 18:32:00,
2013-01-07 13:37:00,50.5,36.3,30.29,ENE,68,4.6,4.6,58,0.00,CLR,,0.00,WeatherDisplay:10.37,2013-01-07 18:37:00,
2013-01-07 13:42:00,50.7,36.0,30.28,North,0,5.8,5.8,57,0.00,CLR,,0.00,WeatherDisplay:10.37,2013-01-07 18:42:00,
2013-01-07 13:48:00,50.7,36.0,30.29,North,0,6.9,6.9,57,0.00,CLR,,0.00,WeatherDisplay:10.37,2013-01-07 18:48:00,
2013-01-07 13:53:00,50.9,36.2,30.28,North,0,3.5,3.5,57,0.00,CLR,,0.00,WeatherDisplay:10.37,2013-01-07 18:53:00,
2013-01-07 13:58:00,51.1,35.9,30.28,NNE,22,3.5,3.5,56,0.00,CLR,,0.00,WeatherDisplay:10.37,2013-01-07 18:58:00,
2013-01-07 14:03:00,51.1,35.5,30.28,SW,225,1.6,1.6,55,0.00,CLR,,0.00,WeatherDisplay:10.37,2013-01-07 19:03:00,
2013-01-07 14:08:00,51.6,36.0,30.28,SSW,202,3.5,3.5,55,0.00,CLR,,0.00,WeatherDisplay:10.37,2013-01-07 19:08:00,
2013-01-07 14:13:00,52.0,36.3,30.28,SW,225,3.5,3.5,55,0.00,CLR,,0.00,WeatherDisplay:10.37,2013-01-07 19:13:00,
2013-01-07 14:18:00,52.3,36.2,30.28,SSE,158,0.0,0.0,54,0.00,CLR,,0.00,WeatherDisplay:10.37,2013-01-07 19:18:00,
2013-01-07 14:23:00,52.3,35.7,30.28,SW,225,3.5,3.5,53,0.00,CLR,,0.00,WeatherDisplay:10.37,2013-01-07 19:23:00,
2013-01-07 14:28:00,52.3,35.7,30.28,SSW,202,0.0,0.1,53,0.00,CLR,,0.00,WeatherDisplay:10.37,2013-01-07 19:28:00,
2013-01-07 14:33:00,52.5,35.9,30.28,South,180,3.5,3.5,53,0.00,CLR,,0.00,WeatherDisplay:10.37,2013-01-07 19:33:00,
2013-01-07 14:38:00,52.9,35.7,30.28,SSW,202,2.3,2.3,52,0.00,CLR,,0.00,WeatherDisplay:10.37,2013-01-07 19:38:00,
2013-01-07 14:43:00,53.2,35.6,30.28,WSW,248,5.8,5.8,51,0.00,CLR,,0.00,WeatherDisplay:10.37,2013-01-07 19:43:00,
2013-01-07 14:48:00,53.4,35.7,30.28,SSW,202,2.3,2.3,51,0.00,CLR,,0.00,WeatherDisplay:10.37,2013-01-07 19:48:00,
2013-01-07 14:53:00,53.4,35.7,30.29,SSE,158,4.6,4.6,51,0.00,CLR,,0.00,WeatherDisplay:10.37,2013-01-07 19:53:00,
2013-01-07 14:58:00,53.4,35.7,30.29,SSE,158,3.5,3.5,51,0.00,CLR,,0.00,WeatherDisplay:10.37,2013-01-07 19:58:00,
2013-01-07 15:04:00,53.8,36.1,30.29,SE,135,4.6,4.6,51,0.00,CLR,,0.00,WeatherDisplay:10.37,2013-01-07 20:04:00,
2013-01-07 15:09:00,53.8,36.1,30.29,SSE,158,3.5,3.5,51,0.00,CLR,,0.00,WeatherDisplay:10.37,2013-01-07 20:09:00,
2013-01-07 15:14:00,53.8,35.6,30.30,SSE,158,5.1,5.1,50,0.00,CLR,,0.00,WeatherDisplay:10.37,2013-01-07 20:14:00,
2013-01-07 15:19:00,53.4,35.2,30.29,SSW,202,2.3,2.3,50,0.00,CLR,,0.00,WeatherDisplay:10.37,2013-01-07 20:19:00,
2013-01-07 15:24:00,53.4,35.7,30.29,SSE,158,4.6,4.6,51,0.00,CLR,,0.00,WeatherDisplay:10.37,2013-01-07 20:24:00,
2013-01-07 15:29:00,53.4,35.2,30.29,SSE,158,2.3,0.0,50,0.00,CLR,,0.00,WeatherDisplay:10.37,2013-01-07 20:29:00,
2013-01-07 15:34:00,53.4,35.2,30.29,SSE,158,2.3,2.3,50,0.00,CLR,,0.00,WeatherDisplay:10.37,2013-01-07 20:34:00,
2013-01-07 15:39:00,53.2,34.6,30.29,SSE,158,3.5,3.5,49,0.00,CLR,,0.00,WeatherDisplay:10.37,2013-01-07 20:39:00,
2013-01-07 15:44:00,53.2,35.1,30.30,SE,135,4.6,4.6,50,0.00,CLR,,0.00,WeatherDisplay:10.37,2013-01-07 20:44:00,
2013-01-07 15:50:00,53.1,34.9,30.30,SSE,158,3.5,3.5,50,0.00,CLR,,0.00,WeatherDisplay:10.37,2013-01-07 20:50:00,
2013-01-07 15:55:00,52.9,34.7,30.31,SSE,158,3.5,3.5,50,0.00,CLR,,0.00,WeatherDisplay:10.37,2013-01-07 20:55:00,
2013-01-07 16:00:00,52.5,34.4,30.31,South,180,4.6,4.6,50,0.00,CLR,,0.00,WeatherDisplay:10.37,2013-01-07 21:00:00,
2013-01-07 16:05:00,52.3,34.2,30.31,South,180,3.1,3.1,50,0.00,CLR,,0.00,WeatherDisplay:10.37,2013-01-07 21:05:00,
2013-01-07 16:10:00,52.0,33.9,30.30,SE,135,3.5,3.5,50,0.00,CLR,,0.00,WeatherDisplay:10.37,2013-01-07 21:10:00,
2013-01-07 16:15:00,51.6,33.6,30.31,SSE,158,3.5,3.5,50,0.00,CLR,,0.00,WeatherDisplay:10.37,2013-01-07 21:15:00,
2013-01-07 16:20:00,51.4,33.4,30.31,SSE,158,2.3,2.3,50,0.00,CLR,,0.00,WeatherDisplay:10.37,2013-01-07 21:20:00,
2013-01-07 16:25:00,51.1,33.1,30.31,South,180,3.5,3.5,50,0.00,CLR,,0.00,WeatherDisplay:10.37,2013-01-07 21:25:00,
2013-01-07 16:30:00,50.9,33.4,30.31,South,180,0.0,0.0,51,0.00,CLR,,0.00,WeatherDisplay:10.37,2013-01-07 21:30:00,
2013-01-07 16:35:00,50.5,33.1,30.30,SSE,158,3.5,3.5,51,0.00,CLR,,0.00,WeatherDisplay:10.37,2013-01-07 21:35:00,
2013-01-07 16:40:00,50.2,32.7,30.31,SE,135,3.5,3.5,51,0.00,CLR,,0.00,WeatherDisplay:10.37,2013-01-07 21:40:00,
2013-01-07 16:45:00,49.8,32.9,30.31,SSE,158,2.3,0.0,52,0.00,CLR,,0.00,WeatherDisplay:10.37,2013-01-07 21:45:00,
2013-01-07 16:50:00,49.6,32.7,30.31,South,180,0.0,0.0,52,0.00,CLR,,0.00,WeatherDisplay:10.37,2013-01-07 21:50:00,
2013-01-07 16:56:00,48.9,32.5,30.31,SW,225,0.0,0.0,53,0.00,CLR,,0.00,WeatherDisplay:10.37,2013-01-07 21:56:00,
2013-01-07 17:01:00,48.7,32.4,30.32,West,270,0.0,0.2,53,0.00,CLR,,0.00,WeatherDisplay:10.37,2013-01-07 22:01:00,
2013-01-07 17:06:00,47.8,32.0,30.32,SSE,158,3.5,3.5,54,0.00,CLR,,0.00,WeatherDisplay:10.37,2013-01-07 22:06:00,
2013-01-07 17:11:00,47.1,31.8,30.32,WSW,248,0.0,0.0,55,0.00,CLR,,0.00,WeatherDisplay:10.37,2013-01-07 22:11:00,
2013-01-07 17:16:00,46.8,31.4,30.32,WSW,248,0.0,0.0,55,0.00,CLR,,0.00,WeatherDisplay:10.37,2013-01-07 22:16:00,
2013-01-07 17:21:00,46.2,31.4,30.32,West,270,2.3,2.3,56,0.00,CLR,,0.00,WeatherDisplay:10.37,2013-01-07 22:21:00,
2013-01-07 17:26:00,46.0,31.2,30.33,West,270,0.0,0.0,56,0.00,CLR,,0.00,WeatherDisplay:10.37,2013-01-07 22:26:00,
2013-01-07 17:31:00,45.7,31.7,30.33,WSW,248,0.0,0.0,58,0.00,CLR,,0.00,WeatherDisplay:10.37,2013-01-07 22:31:00,
2013-01-07 17:36:00,45.5,32.0,30.33,WSW,248,0.0,0.0,59,0.00,CLR,,0.00,WeatherDisplay:10.37,2013-01-07 22:36:00,
2013-01-07 17:41:00,45.1,32.1,30.33,WSW,248,0.0,0.0,60,0.00,CLR,,0.00,WeatherDisplay:10.37,2013-01-07 22:41:00,
2013-01-07 17:46:00,44.8,31.7,30.32,WNW,292,0.0,0.0,60,0.00,CLR,,0.00,WeatherDisplay:10.37,2013-01-07 22:46:00,
2013-01-07 17:51:00,44.2,31.2,30.33,North,0,0.0,0.0,60,0.00,CLR,,0.00,WeatherDisplay:10.37,2013-01-07 22:51:00,
2013-01-07 17:56:00,43.7,31.1,30.33,WNW,292,0.0,0.0,61,0.00,CLR,,0.00,WeatherDisplay:10.37,2013-01-07 22:56:00,
2013-01-07 18:01:00,43.0,31.2,30.33,South,180,0.0,0.0,63,0.00,CLR,,0.00,WeatherDisplay:10.37,2013-01-07 23:01:00,
2013-01-07 18:06:00,42.4,30.7,30.33,West,270,0.0,0.0,63,0.00,CLR,,0.00,WeatherDisplay:10.37,2013-01-07 23:06:00,
2013-01-07 18:12:00,42.1,30.8,30.33,WSW,248,0.0,0.0,64,0.00,CLR,,0.00,WeatherDisplay:10.37,2013-01-07 23:12:00,
2013-01-07 18:17:00,41.5,30.6,30.34,West,270,0.0,0.0,65,0.00,CLR,,0.00,WeatherDisplay:10.37,2013-01-07 23:17:00,
2013-01-07 18:22:00,40.8,30.0,30.34,West,270,0.0,0.0,65,0.00,CLR,,0.00,WeatherDisplay:10.37,2013-01-07 23:22:00,
2013-01-07 18:27:00,40.3,29.4,30.33,West,270,0.0,0.0,65,0.00,CLR,,0.00,WeatherDisplay:10.37,2013-01-07 23:27:00,
2013-01-07 18:32:00,39.9,29.5,30.34,West,270,0.0,0.0,66,0.00,CLR,,0.00,WeatherDisplay:10.37,2013-01-07 23:32:00,
2013-01-07 18:37:00,39.6,29.5,30.34,West,270,0.0,0.0,67,0.00,CLR,,0.00,WeatherDisplay:10.37,2013-01-07 23:37:00,
2013-01-07 18:42:00,39.4,29.3,30.34,West,270,0.0,0.0,67,0.00,CLR,,0.00,WeatherDisplay:10.37,2013-01-07 23:42:00,
2013-01-07 18:47:00,39.0,29.0,30.34,West,270,0.0,0.0,67,0.00,CLR,,0.00,WeatherDisplay:10.37,2013-01-07 23:47:00,
2013-01-07 18:52:00,38.5,28.8,30.35,West,270,0.0,0.0,68,0.00,CLR,,0.00,WeatherDisplay:10.37,2013-01-07 23:52:00,
2013-01-07 18:57:00,37.9,28.7,30.34,West,270,0.0,0.0,69,0.00,CLR,,0.00,WeatherDisplay:10.37,2013-01-07 23:57:00,
2013-01-07 19:02:00,37.9,28.7,30.34,West,270,0.0,0.0,69,0.00,CLR,,0.00,WeatherDisplay:10.37,2013-01-08 00:02:00,
2013-01-07 19:07:00,37.9,29.0,30.34,West,270,0.0,0.0,70,0.00,CLR,,0.00,WeatherDisplay:10.37,2013-01-08 00:07:00,
2013-01-07 19:12:00,37.9,29.0,30.34,West,270,0.0,0.0,70,0.00,CLR,,0.00,WeatherDisplay:10.37,2013-01-08 00:12:00,
2013-01-07 19:17:00,37.6,28.7,30.34,West,270,0.0,0.0,70,0.00,CLR,,0.00,WeatherDisplay:10.37,2013-01-08 00:17:00,
2013-01-07 19:22:00,37.6,29.0,30.34,West,270,0.0,0.0,71,0.00,CLR,,0.00,WeatherDisplay:10.37,2013-01-08 00:22:00,
2013-01-07 19:27:00,37.4,28.9,30.34,West,270,0.0,0.0,71,0.00,CLR,,0.00,WeatherDisplay:10.37,2013-01-08 00:27:00,
2013-01-07 19:32:00,37.2,28.7,30.34,West,270,0.0,0.0,71,0.00,CLR,,0.00,WeatherDisplay:10.37,2013-01-08 00:32:00,
2013-01-07 19:38:00,37.0,28.5,30.34,West,270,0.0,0.0,71,0.00,CLR,,0.00,WeatherDisplay:10.37,2013-01-08 00:38:00,
2013-01-07 19:43:00,36.9,28.7,30.34,West,270,0.0,0.0,72,0.00,CLR,,0.00,WeatherDisplay:10.37,2013-01-08 00:43:00,
2013-01-07 19:48:00,36.7,28.5,30.34,West,270,0.0,0.0,72,0.00,CLR,,0.00,WeatherDisplay:10.37,2013-01-08 00:48:00,
2013-01-07 19:53:00,36.7,28.5,30.34,West,270,0.0,0.0,72,0.00,CLR,,0.00,WeatherDisplay:10.37,2013-01-08 00:53:00,
2013-01-07 19:58:00,36.5,28.3,30.34,West,270,0.0,0.0,72,0.00,CLR,,0.00,WeatherDisplay:10.37,2013-01-08 00:58:00,
2013-01-07 20:03:00,36.3,28.5,30.34,West,270,0.0,0.0,73,0.00,CLR,,0.00,WeatherDisplay:10.37,2013-01-08 01:03:00,
2013-01-07 20:08:00,36.3,28.5,30.34,West,270,0.0,0.0,73,0.00,CLR,,0.00,WeatherDisplay:10.37,2013-01-08 01:08:00,
2013-01-07 20:13:00,36.1,28.3,30.34,West,270,0.0,0.0,73,0.00,CLR,,0.00,WeatherDisplay:10.37,2013-01-08 01:13:00,
2013-01-07 20:18:00,35.8,28.0,30.34,West,270,0.0,0.0,73,0.00,CLR,,0.00,WeatherDisplay:10.37,2013-01-08 01:18:00,
2013-01-07 20:23:00,35.4,28.0,30.34,West,270,0.0,0.0,74,0.00,CLR,,0.00,WeatherDisplay:10.37,2013-01-08 01:23:00,
2013-01-07 20:28:00,35.4,28.0,30.34,West,270,0.0,0.0,74,0.00,CLR,,0.00,WeatherDisplay:10.37,2013-01-08 01:28:00,
2013-01-07 20:33:00,35.6,28.1,30.34,West,270,0.0,0.0,74,0.00,CLR,,0.00,WeatherDisplay:10.37,2013-01-08 01:33:00,
2013-01-07 20:38:00,35.4,28.0,30.34,West,270,0.0,0.0,74,0.00,CLR,,0.00,WeatherDisplay:10.37,2013-01-08 01:38:00,
2013-01-07 20:43:00,35.4,28.3,30.34,West,270,0.0,0.0,75,0.00,CLR,,0.00,WeatherDisplay:10.37,2013-01-08 01:43:00,
2013-01-07 20:48:00,35.2,27.8,30.34,West,270,0.0,0.0,74,0.00,CLR,,0.00,WeatherDisplay:10.37,2013-01-08 01:48:00,
2013-01-07 20:54:00,34.9,27.8,30.35,West,270,0.0,0.0,75,0.00,CLR,,0.00,WeatherDisplay:10.37,2013-01-08 01:54:00,
2013-01-07 20:59:00,34.7,27.6,30.35,West,270,0.0,0.0,75,0.00,CLR,,0.00,WeatherDisplay:10.37,2013-01-08 01:59:00,
2013-01-07 21:04:00,34.7,27.6,30.35,West,270,0.0,0.0,75,0.00,CLR,,0.00,WeatherDisplay:10.37,2013-01-08 02:04:00,
2013-01-07 21:09:00,34.5,27.4,30.35,West,270,0.0,0.0,75,0.00,CLR,,0.00,WeatherDisplay:10.37,2013-01-08 02:09:00,
2013-01-07 21:14:00,34.3,27.2,30.35,West,270,0.0,0.0,75,0.00,CLR,,0.00,WeatherDisplay:10.37,2013-01-08 02:14:00,
2013-01-07 21:19:00,34.3,27.2,30.35,West,270,0.0,0.0,75,0.00,CLR,,0.00,WeatherDisplay:10.37,2013-01-08 02:19:00,
2013-01-07 21:24:00,34.0,26.9,30.35,West,270,0.0,0.0,75,0.00,CLR,,0.00,WeatherDisplay:10.37,2013-01-08 02:24:00,
2013-01-07 21:29:00,33.6,26.9,30.36,West,270,0.0,0.0,76,0.00,CLR,,0.00,WeatherDisplay:10.37,2013-01-08 02:29:00,
2013-01-07 21:34:00,33.6,26.9,30.36,West,270,0.0,0.0,76,0.00,CLR,,0.00,WeatherDisplay:10.37,2013-01-08 02:34:00,
2013-01-07 21:39:00,33.6,26.9,30.36,West,270,0.0,0.0,76,0.00,CLR,,0.00,WeatherDisplay:10.37,2013-01-08 02:39:00,
2013-01-07 21:44:00,33.6,26.9,30.36,West,270,0.0,0.0,76,0.00,CLR,,0.00,WeatherDisplay:10.37,2013-01-08 02:44:00,
2013-01-07 21:49:00,33.4,26.7,30.35,West,270,0.0,0.0,76,0.00,CLR,,0.00,WeatherDisplay:10.37,2013-01-08 02:49:00,
2013-01-07 21:54:00,33.1,26.3,30.35,WNW,292,0.0,0.0,76,0.00,CLR,,0.00,WeatherDisplay:10.37,2013-01-08 02:54:00,
2013-01-07 21:59:00,33.1,26.7,30.35,WNW,292,0.0,0.0,77,0.00,CLR,,0.00,WeatherDisplay:10.37,2013-01-08 02:59:00,
2013-01-07 22:04:00,32.9,26.5,30.35,WNW,292,0.0,0.0,77,0.00,CLR,,0.00,WeatherDisplay:10.37,2013-01-08 03:04:00,
2013-01-07 22:10:00,32.7,26.3,30.36,WNW,292,0.0,0.0,77,0.00,CLR,,0.00,WeatherDisplay:10.37,2013-01-08 03:10:00,
2013-01-07 22:15:00,32.7,26.3,30.37,WNW,292,0.0,0.0,77,0.00,CLR,,0.00,WeatherDisplay:10.37,2013-01-08 03:15:00,
2013-01-07 22:20:00,32.4,26.0,30.37,WNW,292,0.0,0.0,77,0.00,CLR,,0.00,WeatherDisplay:10.37,2013-01-08 03:20:00,
2013-01-07 22:25:00,32.2,25.8,30.37,WNW,292,0.0,0.0,77,0.00,CLR,,0.00,WeatherDisplay:10.37,2013-01-08 03:25:00,
2013-01-07 22:30:00,32.2,26.1,30.36,WNW,292,0.0,0.0,78,0.00,CLR,,0.00,WeatherDisplay:10.37,2013-01-08 03:30:00,
2013-01-07 22:35:00,32.2,26.1,30.36,WNW,292,0.0,0.0,78,0.00,CLR,,0.00,WeatherDisplay:10.37,2013-01-08 03:35:00,
2013-01-07 22:40:00,32.0,25.9,30.36,WNW,292,0.0,0.0,78,0.00,CLR,,0.00,WeatherDisplay:10.37,2013-01-08 03:40:00,
2013-01-07 22:45:00,31.8,26.0,30.36,WNW,292,0.0,0.0,79,0.00,CLR,,0.00,WeatherDisplay:10.37,2013-01-08 03:45:00,
2013-01-07 22:50:00,31.8,26.0,30.36,WNW,292,0.0,0.0,79,0.00,CLR,,0.00,WeatherDisplay:10.37,2013-01-08 03:50:00,
2013-01-07 22:55:00,31.8,26.0,30.36,WNW,292,0.0,0.0,79,0.00,CLR,,0.00,WeatherDisplay:10.37,2013-01-08 03:55:00,
2013-01-07 23:00:00,31.8,26.0,30.36,WNW,292,0.0,0.0,79,0.00,CLR,,0.00,WeatherDisplay:10.37,2013-01-08 04:00:00,
2013-01-07 23:06:00,31.6,25.9,30.36,WNW,292,0.0,0.0,79,0.00,CLR,,0.00,WeatherDisplay:10.37,2013-01-08 04:06:00,
2013-01-07 23:11:00,31.5,25.4,30.36,WNW,292,0.0,0.0,78,0.00,CLR,,0.00,WeatherDisplay:10.37,2013-01-08 04:11:00,
2013-01-07 23:16:00,31.3,25.2,30.36,WNW,292,0.0,0.0,78,0.00,CLR,,0.00,WeatherDisplay:10.37,2013-01-08 04:16:00,
2013-01-07 23:21:00,31.1,25.3,30.37,WNW,292,0.0,0.0,79,0.00,CLR,,0.00,WeatherDisplay:10.37,2013-01-08 04:21:00,
2013-01-07 23:26:00,31.1,25.3,30.37,WNW,292,0.0,0.0,79,0.00,CLR,,0.00,WeatherDisplay:10.37,2013-01-08 04:26:00,
2013-01-07 23:31:00,30.9,24.9,30.36,WNW,292,0.0,0.0,78,0.00,CLR,,0.00,WeatherDisplay:10.37,2013-01-08 04:31:00,
2013-01-07 23:36:00,30.6,24.5,30.36,WNW,292,0.0,0.0,78,0.00,CLR,,0.00,WeatherDisplay:10.37,2013-01-08 04:36:00,
2013-01-07 23:41:00,30.4,24.6,30.36,WNW,292,0.0,0.0,79,0.00,CLR,,0.00,WeatherDisplay:10.37,2013-01-08 04:41:00,
2013-01-07 23:46:00,30.4,24.6,30.36,WNW,292,0.0,0.0,79,0.00,CLR,,0.00,WeatherDisplay:10.37,2013-01-08 04:46:00,
2013-01-07 23:51:00,30.2,24.5,30.37,WNW,292,0.0,0.0,79,0.00,CLR,,0.00,WeatherDisplay:10.37,2013-01-08 04:51:00,
2013-01-07 23:56:00,30.0,24.3,30.37,WNW,292,0.0,0.0,79,0.00,CLR,,0.00,WeatherDisplay:10.37,2013-01-08 04:56:00,